Time;durP1;ratioP1;P1;durP2;ratioP2;P2;SDS_P1;SDS_P2;PMS_P1;PMS_P2;Temp;Humidity;BMP_temperature;BMP_pressure;BME280_temperature;BME280_humidity;BME280_pressure;Samples;Min_cycle;Max_cycle;Signal;HPM_P1;HPM_P2
2023/02/16 00:00:51;;;;;;;52.57;26.93;;;-0.50;99.90;;;-1.54;90.83;99051.13;5072204;28;20473;-72
2023/02/16 00:03:22;;;;;;;55.27;28.73;;;-0.60;99.90;;;-1.28;91.13;99082.84;5072984;28;20462;-73
2023/02/16 00:05:50;;;;;;;48.80;26.70;;;-0.60;99.90;;;-1.76;91.27;99020.88;5069836;28;20447;-76
2023/02/16 00:08:17;;;;;;;56.80;27.23;;;-0.60;99.90;;;-1.32;91.19;99073.38;5071113;28;20472;-78
2023/02/16 00:13:43;;;;;;;51.40;27.00;;;-0.70;99.90;;;-1.18;90.91;99075.88;5056067;28;20430;-82
2023/02/16 00:13:46;;;;;;;55.30;28.60;;;-0.60;99.90;;;-1.41;91.89;99074.09;5061803;28;20773;-80
2023/02/16 00:16:19;;;;;;;54.47;27.50;;;-0.70;99.90;;;-1.27;90.60;99058.00;5064162;28;20967;-83
2023/02/16 00:18:49;;;;;;;57.20;29.73;;;-0.60;99.90;;;-1.24;90.73;99071.03;5056032;28;20467;-78
2023/02/16 00:21:17;;;;;;;60.40;28.20;;;-0.60;99.90;;;-1.18;90.75;99069.72;5070045;28;20453;-75
2023/02/16 00:23:45;;;;;;;56.30;26.40;;;-0.60;99.90;;;-1.26;90.59;99070.31;5060222;28;20462;-78
2023/02/16 00:26:17;;;;;;;58.13;28.23;;;-0.60;99.90;;;-1.37;90.92;99072.91;5060414;28;20621;-84
2023/02/16 00:28:44;;;;;;;58.30;28.43;;;-0.70;99.90;;;-1.45;90.56;99063.69;5047343;28;20472;-83
2023/02/16 00:31:20;;;;;;;48.60;24.67;;;-0.70;99.90;;;-1.46;91.05;99072.59;5052378;28;20577;-78
2023/02/16 00:33:50;;;;;;;51.57;26.77;;;-0.90;99.90;;;-1.54;90.97;99045.81;5055493;28;20460;-82
2023/02/16 00:36:17;;;;;;;59.50;26.73;;;-0.90;99.90;;;-1.53;90.95;99058.13;5055648;28;20478;-79
2023/02/16 00:38:44;;;;;;;50.47;25.90;;;-1.00;99.90;;;-1.57;90.68;99048.72;5052501;28;20463;-81
2023/02/16 00:44:06;;;;;;;47.70;24.37;;;-1.10;99.90;;;-1.75;91.27;99049.06;5043770;28;20477;-82
2023/02/16 00:46:36;;;;;;;54.50;28.00;;;-1.10;99.90;;;-1.83;91.38;99048.78;5047534;28;20453;-79
2023/02/16 00:49:05;;;;;;;52.60;27.03;;;-1.20;99.90;;;-1.87;92.43;99045.50;5062390;28;21010;-83
2023/02/16 00:51:32;;;;;;;50.70;26.23;;;-1.20;99.90;;;-1.81;91.88;99054.81;5066000;28;20488;-83
2023/02/16 00:54:00;;;;;;;53.63;28.40;;;-1.20;99.90;;;-1.78;91.67;99040.50;5047662;28;20463;-81
2023/02/16 00:56:27;;;;;;;57.40;26.33;;;-1.20;99.90;;;-1.88;91.91;99053.59;5055836;28;20456;-80
2023/02/16 00:58:55;;;;;;;59.70;25.90;;;-1.20;99.90;;;-2.44;91.75;98955.09;5066108;28;20494;-81
2023/02/16 01:01:26;;;;;;;56.63;28.33;;;-1.20;99.90;;;-2.07;91.85;99024.91;5059770;28;20459;-78
2023/02/16 01:03:54;;;;;;;51.00;26.50;;;-1.30;99.90;;;-2.91;91.72;98887.88;5053884;28;20460;-77
2023/02/16 01:11:59;;;;;;;56.97;26.60;;;-1.30;99.90;;;-2.08;92.31;99066.44;5055953;28;20500;-79
2023/02/16 01:14:27;;;;;;;64.90;29.20;;;-1.40;99.90;;;-2.06;92.41;99061.88;5057526;28;20481;-80
2023/02/16 01:16:54;;;;;;;57.17;29.60;;;-1.40;99.90;;;-2.60;92.26;98970.34;5051259;28;20448;-82
2023/02/16 01:19:21;;;;;;;63.40;30.67;;;-1.40;99.90;;;-2.10;92.79;99052.47;5056955;28;20461;-79
2023/02/16 01:21:50;;;;;;;54.23;26.83;;;-1.40;99.90;;;-2.09;92.51;99051.50;5048157;28;20444;-77
2023/02/16 01:24:17;;;;;;;59.80;30.90;;;-1.40;99.90;;;-2.16;92.39;99042.31;5068548;28;20455;-79
2023/02/16 01:26:49;;;;;;;56.40;25.10;;;-1.40;99.90;;;-1.98;91.62;99039.31;5050459;28;20458;-84
2023/02/16 01:29:20;;;;;;;58.10;28.80;;;-1.40;99.90;;;-2.05;91.26;99026.47;5054576;28;20566;-81
2023/02/16 01:31:47;;;;;;;57.70;27.90;;;-1.40;99.90;;;-2.18;91.20;99029.16;5049225;28;20456;-79
2023/02/16 01:34:15;;;;;;;58.03;27.83;;;-1.40;99.90;;;-2.05;91.01;99033.59;5059283;28;20505;-83
2023/02/16 01:36:46;;;;;;;53.70;26.13;;;-1.40;99.90;;;-2.19;91.28;99047.84;5047576;28;20859;-81
2023/02/16 01:39:19;;;;;;;51.37;26.90;;;-1.50;99.90;;;-2.20;92.01;99036.38;5045922;28;20534;-79
2023/02/16 01:42:13;;;;;;;53.90;27.60;;;-1.50;99.90;;;-2.22;91.92;99021.53;5053769;28;20501;-80
2023/02/16 01:44:46;;;;;;;48.90;26.20;;;-1.50;99.90;;;-2.32;91.53;99011.63;5061095;28;20588;-74
2023/02/16 01:47:31;;;;;;;49.60;26.13;;;-1.60;99.90;;;-2.17;92.04;99022.91;5075574;28;20463;-78
2023/02/16 01:49:59;;;;;;;52.13;27.03;;;-1.60;99.90;;;-2.32;91.53;99016.06;5072054;28;20835;-78
2023/02/16 01:52:32;;;;;;;51.70;28.80;;;-1.60;99.90;;;-2.25;91.88;99016.47;5060888;28;20455;-77
2023/02/16 01:55:07;;;;;;;54.67;27.00;;;-1.60;99.90;;;-2.22;91.71;99032.13;5055150;28;21291;-80
2023/02/16 01:57:43;;;;;;;52.60;25.43;;;-1.60;99.90;;;-2.19;91.81;99031.94;5055008;28;20460;-80
2023/02/16 02:00:26;;;;;;;53.10;26.00;;;-1.60;99.90;;;-2.47;91.64;98996.81;5046164;28;20464;-79
2023/02/16 02:05:33;;;;;;;55.47;28.17;;;-1.60;99.90;;;-2.33;91.93;99020.53;5060812;28;20448;-82
2023/02/16 02:05:43;;;;;;;51.90;26.13;;;-1.60;99.90;;;-2.34;91.35;99024.13;5047415;28;20598;-81
2023/02/16 02:08:20;;;;;;;47.10;25.87;;;-1.60;99.90;;;-2.24;91.69;99026.09;5046398;28;20447;-81
2023/02/16 02:11:02;;;;;;;53.60;27.30;;;-1.60;99.90;;;-2.29;91.80;99022.00;5049582;28;20572;-81
2023/02/16 02:13:39;;;;;;;48.80;25.97;;;-1.60;99.90;;;-2.31;90.96;99018.59;5051461;28;20447;-83
2023/02/16 02:16:08;;;;;;;51.23;25.70;;;-1.60;99.90;;;-2.22;91.44;99024.19;5042990;28;20454;-78
2023/02/16 02:18:36;;;;;;;49.97;27.07;;;-1.60;99.90;;;-2.26;91.31;99014.78;5051964;28;20452;-78
2023/02/16 02:24:57;;;;;;;52.10;26.70;;;-1.70;99.90;;;-2.35;91.46;99001.25;5020533;28;20471;-81
2023/02/16 02:27:28;;;;;;;49.70;26.13;;;-1.70;99.90;;;-2.30;91.04;98998.25;5053987;28;20459;-79
2023/02/16 02:30:26;;;;;;;56.03;26.33;;;-1.70;99.90;;;-2.31;91.54;98996.56;5049861;28;20478;-81
2023/02/16 02:33:18;;;;;;;50.70;25.07;;;-1.70;99.90;;;-2.42;91.75;98994.69;5056971;28;20456;-79
2023/02/16 02:35:52;;;;;;;48.10;24.30;;;-1.70;99.90;;;-2.39;91.54;98991.81;5043782;28;21621;-83
2023/02/16 02:38:33;;;;;;;54.70;28.43;;;-1.60;99.90;;;-2.40;91.58;98992.78;5072436;28;20439;-80
2023/02/16 02:41:12;;;;;;;52.50;27.13;;;-1.60;99.90;;;-2.36;91.69;98988.94;5058964;28;20467;-75
2023/02/16 02:43:46;;;;;;;55.27;27.90;;;-1.60;99.90;;;-2.38;91.75;98985.56;5081566;28;20452;-81
2023/02/16 02:46:19;;;;;;;51.03;25.20;;;-1.60;99.90;;;-2.26;91.38;98991.81;5062134;28;21012;-80
2023/02/16 02:48:47;;;;;;;54.07;28.40;;;-1.70;99.90;;;-2.27;91.07;99000.72;5053066;28;20482;-83
2023/02/16 02:51:30;;;;;;;56.20;28.60;;;-1.70;99.90;;;-2.39;91.71;98988.34;5049285;28;20460;-84
2023/02/16 03:02:30;;;;;;;50.73;26.27;;;-1.70;99.90;;;-2.36;91.22;98988.94;5053574;28;20456;-82
2023/02/16 03:04:59;;;;;;;49.23;25.90;;;-1.70;99.90;;;-2.44;91.66;98983.38;5053244;28;20489;-78
2023/02/16 03:12:51;;;;;;;48.73;25.80;;;-1.70;99.90;;;-2.68;91.03;98931.22;5046002;28;20452;-79
2023/02/16 03:15:21;;;;;;;53.30;28.13;;;-1.70;99.90;;;-2.70;91.31;98927.84;5053141;28;20448;-79
2023/02/16 03:31:39;;;;;;;49.07;26.47;;;-1.70;99.90;;;-2.38;91.28;98959.09;5086041;28;20486;-77
2023/02/16 03:34:07;;;;;;;50.33;26.43;;;-1.70;99.90;;;-2.53;91.44;98949.59;5086371;28;20485;-75
2023/02/16 03:36:37;;;;;;;48.70;25.80;;;-1.80;99.90;;;-2.58;92.08;98950.78;5068333;28;20489;-81
2023/02/16 03:39:05;;;;;;;48.17;26.33;;;-1.80;99.90;;;-2.50;91.59;98937.00;5064517;28;20469;-84
2023/02/16 03:41:38;;;;;;;46.70;24.70;;;-1.70;99.90;;;-2.42;91.66;98949.69;5059088;28;20452;-81
2023/02/16 03:44:06;;;;;;;54.37;27.37;;;-1.80;99.90;;;-2.52;91.31;98946.84;5055401;28;21205;-81
2023/02/16 03:46:34;;;;;;;49.23;25.07;;;-1.80;99.90;;;-2.52;91.76;98946.00;5054910;28;20443;-83
2023/02/16 03:49:02;;;;;;;48.47;25.33;;;-1.80;99.90;;;-2.63;91.87;98944.97;5068480;28;20444;-81
2023/02/16 03:51:30;;;;;;;52.00;24.77;;;-1.80;99.90;;;-2.54;91.39;98947.91;5053553;28;20468;-81
2023/02/16 03:53:58;;;;;;;48.50;25.33;;;-1.80;99.90;;;-2.49;91.81;98945.81;5060976;28;20462;-79
2023/02/16 03:56:25;;;;;;;48.67;24.80;;;-1.80;99.90;;;-2.63;91.27;98926.47;5049622;28;20455;-82
2023/02/16 03:58:53;;;;;;;49.57;24.93;;;-1.90;99.90;;;-2.57;91.66;98941.88;5048356;28;20945;-81
2023/02/16 04:01:20;;;;;;;57.10;27.43;;;-1.90;99.90;;;-2.54;91.75;98935.53;5072157;28;20474;-76
2023/02/16 04:03:48;;;;;;;53.20;25.40;;;-1.90;99.90;;;-2.47;90.86;98943.91;5071540;28;20465;-83
2023/02/16 04:06:17;;;;;;;49.57;25.47;;;-1.80;99.90;;;-2.66;91.01;98929.31;5060134;28;20449;-81
2023/02/16 04:08:44;;;;;;;47.13;25.50;;;-1.90;99.90;;;-2.49;91.38;98977.56;5044268;28;20710;-83
2023/02/16 04:13:57;;;;;;;51.67;25.10;;;-1.90;99.90;;;-2.57;91.11;98988.69;5073969;28;20479;-84
2023/02/16 04:16:24;;;;;;;53.37;24.80;;;-2.00;99.90;;;-2.57;90.69;98992.16;5053264;28;20457;-81
2023/02/16 04:18:52;;;;;;;53.27;25.40;;;-2.00;99.90;;;-2.50;90.54;98994.38;5048932;28;20509;-74
2023/02/16 04:21:21;;;;;;;44.77;24.00;;;-2.00;99.90;;;-2.53;90.39;98997.25;5047528;28;20468;-80
2023/02/16 04:23:49;;;;;;;50.63;25.17;;;-2.00;99.90;;;-2.57;91.23;98992.16;5044807;28;20437;-82
2023/02/16 04:26:16;;;;;;;52.10;26.73;;;-1.90;99.90;;;-2.40;90.48;99002.53;5068096;28;20450;-75
2023/02/16 04:28:44;;;;;;;47.17;26.13;;;-1.90;99.90;;;-2.42;90.62;98999.97;5052867;28;20456;-81
2023/02/16 04:31:12;;;;;;;46.47;25.80;;;-1.80;99.90;;;-2.36;90.39;99004.84;5052341;28;20702;-76
2023/02/16 04:33:39;;;;;;;46.73;23.43;;;-1.90;99.90;;;-2.33;89.19;99002.00;5051478;28;20450;-76
2023/02/16 04:36:08;;;;;;;59.23;25.70;;;-1.80;99.90;;;-2.48;90.74;99003.91;5079279;28;20462;-81
2023/02/16 04:38:36;;;;;;;46.17;25.60;;;-1.80;99.90;;;-2.35;90.21;99008.34;5060115;28;20478;-80
2023/02/16 04:41:04;;;;;;;52.47;26.97;;;-1.80;99.90;;;-2.47;90.31;98984.41;5060908;28;20456;-78
2023/02/16 04:43:32;;;;;;;50.63;25.67;;;-1.80;99.90;;;-2.40;90.36;98992.78;5042088;28;20468;-78
2023/02/16 04:45:59;;;;;;;52.93;26.00;;;-1.80;99.90;;;-2.58;91.74;98984.31;5049390;28;20468;-78
2023/02/16 04:48:26;;;;;;;53.50;26.80;;;-1.80;99.90;;;-2.65;92.24;98991.00;5058599;28;21000;-81
2023/02/16 04:50:54;;;;;;;60.23;27.20;;;-1.80;99.90;;;-2.44;91.45;98978.91;5027936;28;20556;-78
2023/02/16 04:53:21;;;;;;;46.77;26.80;;;-1.70;99.90;;;-2.50;91.93;98976.72;5051726;28;20452;-80
2023/02/16 04:55:50;;;;;;;49.77;27.57;;;-1.80;99.90;;;-2.44;91.82;98970.13;5052030;28;20487;-80
2023/02/16 04:58:18;;;;;;;49.07;26.23;;;-1.80;99.90;;;-2.45;91.52;98971.09;5065538;28;20464;-75
2023/02/16 05:00:45;;;;;;;43.43;23.90;;;-1.80;99.90;;;-2.48;91.76;98972.16;5044828;28;20472;-77
2023/02/16 05:03:12;;;;;;;49.60;28.07;;;-1.80;99.90;;;-3.06;92.13;98884.50;5049423;28;20465;-80
2023/02/16 05:05:40;;;;;;;58.70;28.10;;;-1.80;99.90;;;-2.51;92.66;98980.31;5062457;28;20465;-78
2023/02/16 05:08:07;;;;;;;53.07;28.07;;;-1.80;99.90;;;-2.50;92.62;98991.72;5052660;28;20454;-77
2023/02/16 05:10:35;;;;;;;47.97;27.47;;;-1.70;99.90;;;-2.48;92.63;98992.50;5049970;28;20884;-77
2023/02/16 05:15:49;;;;;;;52.20;26.83;;;-1.80;99.90;;;-2.55;93.15;98978.84;5066128;28;20466;-79
2023/02/16 05:18:16;;;;;;;50.90;26.40;;;-1.80;99.90;;;-2.49;93.10;98993.44;5076945;28;20447;-82
2023/02/16 05:23:29;;;;;;;49.90;26.87;;;-1.70;99.90;;;-2.37;93.06;98987.25;5063536;28;20489;-76
2023/02/16 05:25:57;;;;;;;51.60;25.20;;;-1.70;99.90;;;-2.56;93.11;98977.97;5049531;28;20456;-75
2023/02/16 05:28:25;;;;;;;55.30;27.50;;;-1.70;99.90;;;-2.47;93.74;98991.53;5051005;28;20798;-77
2023/02/16 05:30:54;;;;;;;48.67;25.07;;;-1.70;99.90;;;-2.30;93.60;98995.63;5045608;28;20476;-73
2023/02/16 05:33:21;;;;;;;55.00;26.57;;;-1.70;99.90;;;-2.36;93.61;98988.13;5067155;28;20460;-78
2023/02/16 05:35:48;;;;;;;53.70;26.03;;;-1.70;99.90;;;-2.34;94.12;98989.72;5045759;28;21250;-72
2023/02/16 05:38:15;;;;;;;56.50;28.27;;;-1.60;99.90;;;-2.73;94.26;98933.34;5041735;28;20483;-73
2023/02/16 05:40:43;;;;;;;59.07;28.70;;;-1.50;99.90;;;-2.25;94.88;98998.81;5046039;28;20459;-72
2023/02/16 05:43:10;;;;;;;62.33;27.77;;;-1.50;99.90;;;-2.28;95.00;99004.28;5070602;28;20446;-73
2023/02/16 05:45:40;;;;;;;60.43;27.77;;;-1.50;99.90;;;-2.18;95.15;98983.31;5040457;28;20455;-70
2023/02/16 05:48:07;;;;;;;57.13;27.50;;;-1.40;99.90;;;-1.90;93.85;99005.13;5038094;28;20463;-73
2023/02/16 05:50:34;;;;;;;64.30;29.30;;;-1.30;99.90;;;-1.98;94.37;99002.22;5046900;28;20470;-74
2023/02/16 05:53:01;;;;;;;53.60;25.80;;;-1.30;99.90;;;-2.03;94.21;99011.34;5042936;28;20448;-73
2023/02/16 05:55:29;;;;;;;63.27;29.93;;;-1.30;99.90;;;-1.87;93.82;99012.88;5047663;28;20453;-73
2023/02/16 05:57:56;;;;;;;51.67;26.67;;;-1.30;99.90;;;-1.80;93.66;99016.78;5049532;28;20463;-72
2023/02/16 06:00:24;;;;;;;58.73;28.43;;;-1.20;99.90;;;-1.96;93.93;99011.75;5044428;28;20543;-73
2023/02/16 06:02:52;;;;;;;56.40;29.43;;;-1.20;99.90;;;-1.78;93.40;99017.50;5045234;28;20450;-70
2023/02/16 06:05:20;;;;;;;57.00;27.10;;;-1.10;99.90;;;-1.92;93.50;99012.34;5058339;28;20458;-72
2023/02/16 06:07:47;;;;;;;56.30;28.77;;;-1.20;99.90;;;-1.98;94.21;99003.03;5039464;28;20461;-72
2023/02/16 06:10:15;;;;;;;59.60;28.20;;;-1.20;99.90;;;-1.94;93.99;99006.31;5057570;28;20558;-72
2023/02/16 06:12:42;;;;;;;63.67;30.17;;;-1.20;99.90;;;-2.11;94.65;99008.38;5045075;28;20814;-72
2023/02/16 06:15:10;;;;;;;69.13;33.40;;;-1.30;99.90;;;-2.37;94.35;98950.19;5048028;28;20464;-74
2023/02/16 06:17:37;;;;;;;62.93;30.67;;;-1.20;99.90;;;-1.95;94.51;99012.59;5043047;28;20450;-71
2023/02/16 06:20:08;;;;;;;53.13;27.37;;;-1.20;99.90;;;-2.00;94.47;99021.72;5055467;28;20580;-73
2023/02/16 06:22:35;;;;;;;59.23;30.97;;;-1.20;99.90;;;-1.91;94.41;99027.28;5047994;28;20536;-72
2023/02/16 06:25:03;;;;;;;55.67;29.40;;;-1.20;99.90;;;-1.91;93.94;99019.34;5063452;28;20453;-72
2023/02/16 06:27:30;;;;;;;52.13;28.73;;;-1.20;99.90;;;-1.96;94.40;99021.50;5043306;28;20464;-73
2023/02/16 06:29:57;;;;;;;49.73;26.23;;;-1.20;99.90;;;-2.19;94.31;99016.06;5035175;28;20455;-72
2023/02/16 06:32:24;;;;;;;62.87;30.80;;;-1.20;99.90;;;-2.09;94.83;99014.41;5040914;28;20836;-73
2023/02/16 06:34:51;;;;;;;58.47;28.63;;;-1.30;99.90;;;-2.09;94.61;99017.06;5031625;28;20474;-74
2023/02/16 06:37:21;;;;;;;60.00;29.90;;;-1.30;99.90;;;-2.02;94.67;99018.34;5042611;28;20470;-73
2023/02/16 06:39:48;;;;;;;65.10;30.80;;;-1.30;99.90;;;-2.14;94.85;99019.22;5035994;28;20453;-71
2023/02/16 06:42:15;;;;;;;61.93;28.20;;;-1.30;99.90;;;-2.09;94.55;99026.84;5034566;28;20460;-73
2023/02/16 06:44:43;;;;;;;60.17;29.27;;;-1.30;99.90;;;-2.04;95.09;99020.25;5040012;28;21027;-72
2023/02/16 06:47:10;;;;;;;56.77;28.63;;;-1.30;99.90;;;-2.16;94.43;99032.53;5041192;28;20559;-74
2023/02/16 06:49:37;;;;;;;55.53;26.73;;;-1.30;99.90;;;-2.29;94.55;98969.03;5037393;28;20447;-68
2023/02/16 06:52:05;;;;;;;60.67;28.43;;;-1.30;99.90;;;-1.83;93.85;99024.94;5033910;28;20504;-68
2023/02/16 06:54:33;;;;;;;52.40;27.40;;;-1.20;99.90;;;-1.79;93.20;99037.00;5039481;28;20967;-73
2023/02/16 06:57:01;;;;;;;54.80;27.83;;;-1.10;99.90;;;-1.92;93.37;99033.53;5042032;28;20952;-74
2023/02/16 06:59:28;;;;;;;54.73;27.30;;;-1.10;99.90;;;-1.74;92.92;99045.47;5033966;28;20937;-74
2023/02/16 07:01:55;;;;;;;49.30;26.80;;;-1.10;99.90;;;-1.84;92.81;99049.75;5034569;28;20466;-73
2023/02/16 07:04:22;;;;;;;47.30;26.27;;;-1.10;99.90;;;-1.67;92.76;99045.03;5046720;28;20506;-69
2023/02/16 07:06:49;;;;;;;49.63;28.00;;;-1.10;99.90;;;-1.64;92.87;99044.78;5043751;28;20468;-72
2023/02/16 07:09:17;;;;;;;50.60;27.67;;;-1.00;99.90;;;-1.73;92.69;99041.88;5059001;28;21294;-70
2023/02/16 07:11:45;;;;;;;53.33;27.17;;;-1.00;99.90;;;-1.73;91.88;99031.28;5052124;28;20480;-73
2023/02/16 07:14:12;;;;;;;46.60;26.93;;;-1.00;99.90;;;-1.52;92.19;99045.69;5055519;28;20458;-74
2023/02/16 07:16:40;;;;;;;53.97;28.00;;;-0.90;99.90;;;-1.59;91.91;99047.97;5054857;28;20456;-73
2023/02/16 07:19:07;;;;;;;50.23;27.43;;;-0.90;99.90;;;-1.62;91.85;99043.72;5068732;28;20807;-70
2023/02/16 07:21:37;;;;;;;53.80;28.33;;;-0.90;99.90;;;-1.59;92.02;99050.63;5053583;28;20450;-74
2023/02/16 07:24:05;;;;;;;48.43;27.47;;;-0.90;99.90;;;-1.64;91.53;99048.31;5058410;28;20959;-68
2023/02/16 07:26:33;;;;;;;43.93;26.10;;;-0.90;99.90;;;-1.61;91.92;99045.44;5055548;28;20807;-72
2023/02/16 07:29:01;;;;;;;47.90;25.10;;;-0.80;99.90;;;-1.57;91.73;99038.94;5051260;28;20447;-78
2023/02/16 07:31:29;;;;;;;48.00;25.97;;;-0.80;99.90;;;-1.43;91.51;99034.41;5047741;28;20545;-73
2023/02/16 07:33:56;;;;;;;45.50;24.57;;;-0.80;99.90;;;-1.41;91.03;99042.28;5046219;28;20494;-71
2023/02/16 07:36:23;;;;;;;43.03;25.87;;;-0.70;99.90;;;-1.33;91.49;99039.88;5049850;28;21240;-72
2023/02/16 07:38:50;;;;;;;43.40;24.77;;;-0.70;99.90;;;-1.13;90.55;99033.09;5051572;28;20483;-71
2023/02/16 07:41:18;;;;;;;47.03;25.63;;;-0.50;99.90;;;-1.11;90.34;99039.13;5049328;28;20466;-71
2023/02/16 07:43:45;;;;;;;41.90;25.33;;;-0.50;99.90;;;-1.19;90.08;98999.91;5037210;28;20448;-75
2023/02/16 07:46:13;;;;;;;44.73;24.33;;;-0.40;99.90;;;-0.92;89.20;99021.81;5053378;28;20465;-70
2023/02/16 07:48:41;;;;;;;44.75;31.40;;;-0.30;99.90;;;-0.76;89.06;99042.72;5046891;28;20463;-72
2023/02/16 07:51:08;;;;;;;41.90;27.17;;;-0.20;99.90;;;-0.78;87.88;99029.53;5059390;28;20624;-71
2023/02/16 07:53:35;;;;;;;39.30;23.60;;;-0.10;99.90;;;-0.66;87.82;99027.78;5042269;28;20455;-71
2023/02/16 07:56:03;;;;;;;38.33;23.63;;;-0.10;99.90;;;-0.64;87.03;99038.25;5059376;28;20486;-73
2023/02/16 07:58:30;;;;;;;39.03;23.73;;;0.00;98.10;;;-0.62;86.67;99031.88;5041291;28;20459;-72
2023/02/16 08:01:06;;;;;;;38.07;21.83;;;0.00;97.00;;;-0.68;87.15;99018.22;5041852;28;20461;-73
2023/02/16 08:03:35;;;;;;;42.60;25.00;;;0.00;97.20;;;-0.46;86.57;99034.16;5047128;28;20458;-71
2023/02/16 08:06:02;;;;;;;40.17;22.57;;;0.00;97.40;;;-0.44;86.31;99020.78;5048688;28;20468;-71
2023/02/16 08:08:30;;;;;;;40.10;24.90;;;0.10;96.40;;;-0.65;86.99;99018.84;5067163;28;20495;-71
2023/02/16 08:10:58;;;;;;;40.23;22.70;;;0.00;95.90;;;-0.52;86.67;99020.56;5048266;28;20497;-70
2023/02/16 08:13:25;;;;;;;37.70;23.80;;;0.10;96.70;;;-0.43;86.60;99022.47;5061278;28;20499;-72
2023/02/16 08:15:52;;;;;;;36.87;21.67;;;0.10;97.00;;;-0.38;86.15;99020.31;5060974;28;20454;-72
2023/02/16 08:18:20;;;;;;;42.27;23.80;;;0.10;96.40;;;-0.65;87.17;99029.47;5035192;28;20713;-72
2023/02/16 08:20:48;;;;;;;37.37;24.47;;;0.00;96.20;;;-0.58;86.95;99014.75;5038734;28;22745;-70
2023/02/16 08:23:15;;;;;;;37.67;23.43;;;0.10;96.60;;;-0.39;86.51;99013.28;5055153;28;20503;-72
2023/02/16 08:25:43;;;;;;;37.80;24.67;;;0.20;97.00;;;-0.30;86.60;99017.88;5047233;28;20452;-70
2023/02/16 08:28:13;;;;;;;40.87;23.33;;;0.30;96.30;;;-0.21;85.93;99021.63;5044445;28;20823;-71
2023/02/16 08:30:41;;;;;;;41.43;25.40;;;0.40;95.90;;;0.10;85.16;99013.03;5040016;28;20502;-72
2023/02/16 08:33:08;;;;;;;36.43;21.53;;;0.50;96.20;;;0.02;84.98;99021.63;5039611;28;20456;-68
2023/02/16 08:35:38;;;;;;;39.03;23.20;;;0.60;94.10;;;0.30;84.66;99023.84;5057532;28;20464;-71
2023/02/16 08:38:07;;;;;;;35.00;22.73;;;0.80;94.60;;;0.55;84.28;99022.69;5043592;28;20489;-71
2023/02/16 08:40:35;;;;;;;34.97;22.87;;;0.90;93.90;;;0.79;82.80;99034.94;5040516;28;20457;-70
2023/02/16 08:43:02;;;;;;;35.53;22.77;;;1.20;93.00;;;0.94;81.88;99032.78;5055908;28;20471;-72
2023/02/16 08:45:29;;;;;;;35.93;22.90;;;1.30;91.50;;;0.87;81.71;99028.97;5052632;28;20464;-70
2023/02/16 08:48:00;;;;;;;32.20;19.93;;;1.40;90.70;;;0.81;82.26;99027.66;5057298;28;20579;-71
2023/02/16 08:50:27;;;;;;;32.77;23.20;;;1.40;90.80;;;1.08;81.41;99032.47;5043989;28;20455;-72
2023/02/16 08:52:54;;;;;;;32.47;21.77;;;1.60;90.40;;;1.31;80.79;99032.34;5055593;28;20481;-71
2023/02/16 08:55:23;;;;;;;31.60;21.93;;;1.70;90.40;;;1.48;80.00;99035.38;5062963;28;20488;-72
2023/02/16 08:57:51;;;;;;;32.00;20.53;;;1.90;90.00;;;1.58;79.49;99033.59;5054908;28;20473;-70
2023/02/16 09:00:34;;;;;;;29.23;20.73;;;2.10;88.10;;;1.84;78.74;99033.16;5042129;28;20867;-71
2023/02/16 09:03:03;;;;;;;31.27;19.40;;;2.20;87.50;;;1.68;78.83;99031.81;5043233;28;20502;-72
2023/02/16 09:05:30;;;;;;;31.80;20.10;;;2.20;86.60;;;1.68;78.86;99039.00;5034321;28;20471;-72
2023/02/16 09:07:58;;;;;;;31.87;22.33;;;2.20;86.00;;;1.75;78.83;99042.78;5044191;28;20993;-71
2023/02/16 09:10:26;;;;;;;28.90;18.33;;;2.30;86.00;;;1.77;78.18;99040.84;5055321;28;20462;-69
2023/02/16 09:12:54;;;;;;;33.87;20.17;;;2.30;85.40;;;1.89;78.25;99049.56;5058742;28;20507;-70
2023/02/16 09:15:21;;;;;;;31.13;21.97;;;2.40;85.30;;;1.88;78.24;99047.88;5034930;28;20473;-71
2023/02/16 09:17:48;;;;;;;27.67;19.40;;;2.50;85.30;;;1.96;77.44;98994.75;5047050;28;20465;-71
2023/02/16 09:20:16;;;;;;;29.00;20.33;;;2.60;85.00;;;2.32;76.67;99050.28;5041540;28;20458;-71
2023/02/16 09:22:45;;;;;;;29.70;21.47;;;2.70;84.60;;;2.45;76.15;99052.69;5041720;28;21840;-71
2023/02/16 09:25:15;;;;;;;29.27;20.43;;;2.80;84.20;;;2.54;76.18;99064.34;5036796;28;20462;-70
2023/02/16 09:27:44;;;;;;;28.30;20.57;;;3.00;83.40;;;2.73;75.47;99068.88;5041050;28;20451;-71
2023/02/16 09:30:13;;;;;;;26.30;18.93;;;3.10;82.70;;;2.86;75.42;99075.78;5053787;28;20446;-73
2023/02/16 09:32:41;;;;;;;26.30;19.20;;;3.20;82.60;;;2.99;73.93;99068.34;5047869;28;20972;-70
2023/02/16 09:35:08;;;;;;;26.83;19.80;;;3.30;82.20;;;3.17;73.57;99072.97;5058696;28;20789;-72
2023/02/16 09:37:35;;;;;;;30.43;20.87;;;3.40;82.20;;;3.07;73.41;99063.13;5041880;28;20511;-71
2023/02/16 09:40:04;;;;;;;27.57;20.03;;;3.40;81.70;;;3.25;73.72;99067.72;5036554;28;20473;-71
2023/02/16 09:42:48;;;;;;;30.00;20.40;;;3.50;81.60;;;3.40;73.03;99065.47;5061731;28;20470;-68
2023/02/16 09:45:20;;;;;;;26.27;20.10;;;3.70;81.40;;;3.38;73.34;99068.28;5040821;28;20463;-71
2023/02/16 09:47:50;;;;;;;27.80;19.30;;;3.80;80.80;;;3.67;72.88;99071.88;5039475;28;20542;-72
2023/02/16 09:50:20;;;;;;;25.13;20.30;;;3.90;80.90;;;3.44;73.27;99076.72;5057593;28;20445;-70
2023/02/16 09:52:54;;;;;;;29.27;20.27;;;4.00;80.40;;;3.44;72.46;99060.69;5037925;28;20474;-73
2023/02/16 09:55:23;;;;;;;27.33;20.43;;;4.00;80.30;;;3.70;71.91;99071.59;5040474;28;20465;-70
2023/02/16 09:58:03;;;;;;;26.30;20.33;;;4.10;80.30;;;3.87;72.24;99045.94;5059835;28;20551;-72
2023/02/16 10:00:45;;;;;;;22.50;17.90;;;4.20;80.10;;;3.96;72.00;99065.59;5038177;28;20908;-71
2023/02/16 10:03:46;;;;;;;27.03;19.50;;;4.30;79.80;;;4.13;70.84;99053.25;5032059;28;20453;-70
2023/02/16 10:06:33;;;;;;;25.30;20.70;;;4.40;79.60;;;4.00;70.91;99050.06;5035565;28;20511;-72
2023/02/16 10:09:06;;;;;;;26.67;20.50;;;4.50;79.30;;;4.40;69.62;99051.56;5036910;28;20474;-71
2023/02/16 10:11:40;;;;;;;25.63;20.80;;;4.60;79.00;;;4.57;69.58;99051.75;5038395;28;20486;-71
2023/02/16 10:14:18;;;;;;;24.20;19.30;;;4.80;79.00;;;4.71;68.91;99059.25;5035802;28;20506;-69
2023/02/16 10:16:55;;;;;;;29.00;18.87;;;5.00;78.70;;;4.89;68.51;99051.22;5049072;28;20449;-71
2023/02/16 10:19:28;;;;;;;26.20;19.80;;;5.10;78.40;;;4.84;68.78;99036.63;5057677;28;20445;-71
2023/02/16 10:22:03;;;;;;;25.50;18.70;;;5.20;78.10;;;5.13;67.74;99040.88;5030724;28;20464;-71
2023/02/16 10:24:37;;;;;;;24.33;18.30;;;5.30;78.00;;;5.07;68.01;99043.16;5030728;28;20539;-69
2023/02/16 10:27:11;;;;;;;25.80;19.27;;;5.40;77.40;;;5.27;67.13;99037.63;5038989;28;20453;-72
2023/02/16 10:29:39;;;;;;;26.10;20.17;;;5.50;77.40;;;5.23;66.81;99041.59;5029086;28;20465;-69
2023/02/16 10:32:22;;;;;;;22.00;18.80;;;5.60;77.20;;;5.31;67.02;99033.63;5050310;28;20475;-74
2023/02/16 10:34:54;;;;;;;22.03;18.20;;;5.60;77.10;;;5.35;67.01;99029.63;5020380;28;20458;-71
2023/02/16 10:37:44;;;;;;;26.67;20.10;;;5.70;76.80;;;5.64;65.81;99023.13;5053472;28;20468;-71
2023/02/16 10:40:25;;;;;;;22.80;18.23;;;5.80;76.60;;;5.89;65.86;99020.56;5041083;28;20543;-72
2023/02/16 10:42:59;;;;;;;24.50;20.07;;;6.00;76.80;;;5.91;64.77;99018.56;5030208;28;20604;-72
2023/02/16 10:45:34;;;;;;;22.00;17.53;;;6.10;76.10;;;6.11;64.43;99026.38;5033905;28;20557;-73
2023/02/16 10:48:01;;;;;;;24.57;17.97;;;6.20;76.00;;;6.19;64.19;99010.34;5029510;28;20464;-72
2023/02/16 10:50:33;;;;;;;24.80;18.30;;;6.30;75.80;;;6.22;63.98;99015.38;5069411;28;20825;-69
2023/02/16 10:53:06;;;;;;;26.87;20.30;;;6.40;75.60;;;6.04;64.61;99006.59;5049926;28;20469;-72
2023/02/16 10:55:34;;;;;;;26.90;18.70;;;6.40;75.10;;;6.32;64.01;99009.03;5038135;28;20479;-70
2023/02/16 10:58:02;;;;;;;25.63;20.30;;;6.40;75.20;;;6.64;62.88;99012.78;5035282;28;20487;-71
2023/02/16 11:00:51;;;;;;;21.50;18.30;;;6.70;74.80;;;6.82;62.57;99003.75;5033454;28;20968;-70
2023/02/16 11:03:24;;;;;;;25.07;19.50;;;6.80;75.00;;;7.04;62.45;99013.81;5030231;28;20458;-72
2023/02/16 11:05:54;;;;;;;24.48;18.48;;;7.00;74.80;;;7.19;61.34;99005.91;5048764;28;20946;-71
2023/02/16 11:08:24;;;;;;;21.63;18.77;;;7.20;74.20;;;7.23;60.43;98998.38;5061445;28;20250;-70
2023/02/16 11:10:53;;;;;;;22.17;18.60;;;7.30;73.50;;;7.37;60.76;98994.13;5044836;28;20452;-69